Nissos Mykonos — SYJZ — position and weather

sailwx.info

Track history (hours):
 
Tides and Currents Weather Stations Pressure Air Temp Water Temp Dewpoint Dewpoint Depression Visibility Wind Speed Wind Dir Waves Ship Positions

Nissos Mykonos

Last reported at 2017-Jan-20 05:33 UTC. Time now 2017-Jan-20 05:52 UTC.
Position N 37°57' E 023°38'.

Length 141 m; draft 5.2 m.

Type: Passenger vessel. MMSI: 240389000.

Date/timePositionNaut miles runAvg speedWind from/ knotsBaromVisibWave heightAir tempDewpointWater temp
2017-Jan-20 05:33N 37°57' E 023°38'0 0.0
2017-Jan-20 04:33N 37°57' E 023°38'0 0.0
2017-Jan-20 03:33N 37°57' E 023°38'0 0.0
2017-Jan-20 02:33N 37°57' E 023°38'0 0.0
2017-Jan-20 01:33N 37°57' E 023°38'0 0.0
2017-Jan-20 00:33N 37°57' E 023°38'0 0.0
2017-Jan-19 23:33N 37°57' E 023°38'0 0.0
2017-Jan-19 22:33N 37°57' E 023°38'0 0.0
2017-Jan-19 21:33N 37°57' E 023°38'8 8.1
2017-Jan-19 20:34N 37°49' E 023°41'6920.9
2017-Jan-19 17:16N 37°27' E 025°03'1217.0
2017-Jan-19 16:33N 37°28' E 025°18'165 9.0
2017-Jan-18 22:11N 40°13' E 024°57'1218.6
2017-Jan-18 21:33N 40°23' E 024°50'2221.7
2017-Jan-18 20:34N 40°38' E 024°30'1817.9
2017-Jan-18 19:33N 40°56' E 024°25'0 0.0
2017-Jan-18 18:33N 40°56' E 024°25'0 0.0
2017-Jan-18 17:33N 40°56' E 024°25'8 7.6
2017-Jan-18 16:34N 40°48' E 024°26'2323.4
2017-Jan-18 15:34N 40°27' E 024°39'2119.2
2017-Jan-18 14:29N 40°10' E 024°53'162 8.5
2017-Jan-17 19:27N 37°29' E 025°18'1112.1
2017-Jan-17 18:32N 37°27' E 025°04'1310.3
2017-Jan-17 17:17N 37°32' E 024°49'5721.1
2017-Jan-17 14:34N 37°46' E 023°39'1010.3
2017-Jan-17 13:34N 37°57' E 023°38'0 0.0
2017-Jan-17 12:33N 37°57' E 023°38'0 0.0
2017-Jan-17 11:34N 37°57' E 023°38'0 0.4
2017-Jan-17 10:34N 37°56' E 023°38'7518.8
2017-Jan-17 06:33N 37°27' E 025°05'10 0.9
2017-Jan-16 19:28N 37°28' E 025°18'1011.3
2017-Jan-16 18:33N 37°27' E 025°05'1310.7
2017-Jan-16 17:18N 37°31' E 024°49'5720.9
2017-Jan-16 14:33N 37°46' E 023°39'10 3.1
2017-Jan-16 11:16N 37°57' E 023°38'0 0.1
2017-Jan-16 10:33N 37°57' E 023°38'0 0.0
2017-Jan-16 09:33N 37°57' E 023°38'0 0.0
2017-Jan-16 08:33N 37°57' E 023°38'0 0.0
2017-Jan-16 07:33N 37°57' E 023°38'0 0.0
2017-Jan-16 06:33N 37°57' E 023°38'0 0.0
2017-Jan-16 05:33N 37°57' E 023°38'0 0.0
2017-Jan-16 04:33N 37°57' E 023°38'0 0.0
2017-Jan-16 03:33N 37°57' E 023°38'0 0.0
2017-Jan-16 02:33N 37°57' E 023°38'0 0.0
2017-Jan-16 01:33N 37°57' E 023°38'0 0.0
2017-Jan-16 00:33N 37°57' E 023°38'0 0.0
2017-Jan-15 23:33N 37°57' E 023°38'0 0.0
2017-Jan-15 22:33N 37°57' E 023°38'1 0.5
2017-Jan-15 21:32N 37°57' E 023°38'3 3.3
2017-Jan-15 20:34N 37°53' E 023°38'8220.6
2017-Jan-15 16:34N 37°28' E 025°17'150 8.3
2017-Jan-14 22:30N 39°57' E 024°59'2122.5
2017-Jan-14 21:33N 40°16' E 024°45'2322.6
2017-Jan-14 20:33N 40°35' E 024°31'2121.1
2017-Jan-14 19:33N 40°56' E 024°25'0 0.1
2017-Jan-14 18:33N 40°56' E 024°25'0 0.0
2017-Jan-14 17:33N 40°56' E 024°25'3 3.3
2017-Jan-14 16:33N 40°53' E 024°25'2222.4
2017-Jan-14 15:33N 40°31' E 024°35'2222.3
2017-Jan-14 14:33N 40°12' E 024°49'165 8.6
2017-Jan-13 19:26N 37°29' E 025°18'1112.3
2017-Jan-13 18:33N 37°27' E 025°04'1310.5
2017-Jan-13 17:17N 37°32' E 024°49'4622.1
2017-Jan-13 15:14N 37°37' E 023°52'1522.0
2017-Jan-13 14:34N 37°48' E 023°38'9 9.1
2017-Jan-13 13:33N 37°57' E 023°38'0 0.0
2017-Jan-13 12:33N 37°57' E 023°38'0 0.0
2017-Jan-13 11:33N 37°57' E 023°38'0 0.0
2017-Jan-13 10:33N 37°57' E 023°38'0 0.0
2017-Jan-13 09:33N 37°57' E 023°38'0 0.0
2017-Jan-13 08:33N 37°57' E 023°38'0 0.0
2017-Jan-13 07:33N 37°57' E 023°38'0 0.0
2017-Jan-13 06:33N 37°57' E 023°38'0 0.0
2017-Jan-13 05:33N 37°57' E 023°38'0 0.0
2017-Jan-13 04:33N 37°57' E 023°38'0 0.0
2017-Jan-13 03:33N 37°57' E 023°38'0 0.0
2017-Jan-13 02:33N 37°57' E 023°38'0 0.0
2017-Jan-13 01:33N 37°57' E 023°38'0 0.0
2017-Jan-13 00:33N 37°57' E 023°38'0 0.0
2017-Jan-12 23:33N 37°57' E 023°38'0 0.0
2017-Jan-12 22:33N 37°57' E 023°38'0 0.0
2017-Jan-12 21:33N 37°57' E 023°38'3 3.0
2017-Jan-12 20:34N 37°54' E 023°38'8220.5
2017-Jan-12 16:34N 37°27' E 025°16'65 7.8
2017-Jan-12 08:13N 38°12' E 026°16'1115.7
2017-Jan-12 07:29N 38°22' E 026°08'1313.9
2017-Jan-12 06:34N 38°32' E 026°19'2221.6
2017-Jan-12 05:33N 38°52' E 026°31'1514.8
2017-Jan-12 04:33N 39°06' E 026°34'2 1.5
2017-Jan-12 03:33N 39°08' E 026°35'9617.7
2017-Jan-11 22:08N 40°04' E 024°53'1321.8
2017-Jan-11 21:33N 40°15' E 024°46'2322.1
2017-Jan-11 20:30N 40°35' E 024°31'2122.3
2017-Jan-11 19:33N 40°56' E 024°24'0 0.4
2017-Jan-11 18:33N 40°56' E 024°25'0 0.0
2017-Jan-11 17:33N 40°56' E 024°25'1716.7
2017-Jan-11 16:33N 40°40' E 024°29'2322.6
2017-Jan-11 15:33N 40°19' E 024°42'2322.6
2017-Jan-11 14:33N 39°60' E 024°57'9216.9
2017-Jan-11 09:07N 39°06' E 026°34'0 0.8
2017-Jan-11 08:33N 39°06' E 026°34'0 0.0
2017-Jan-11 07:33N 39°06' E 026°34'1616.0
2017-Jan-11 06:33N 38°51' E 026°29'2222.2
2017-Jan-11 05:33N 38°30' E 026°19'77 7.6
2017-Jan-10 19:28N 37°30' E 025°18'1112.3
2017-Jan-10 18:33N 37°27' E 025°04'1410.3
2017-Jan-10 17:14N 37°31' E 024°48'5721.2
2017-Jan-10 14:33N 37°46' E 023°39'1110.5
2017-Jan-10 13:33N 37°57' E 023°38'0 0.0
2017-Jan-10 12:33N 37°57' E 023°38'0 0.0
2017-Jan-10 11:33N 37°57' E 023°38'7 6.8
2017-Jan-10 10:33N 37°50' E 023°40'7518.6
2017-Jan-10 06:34N 37°28' E 025°10'  
Track history (hours):
 
Tides and Currents Weather Stations Pressure Air Temp Water Temp Dewpoint Dewpoint Depression Visibility Wind Speed Wind Dir Waves Ship Positions

Nissos Mykonos

Last reported at 2017-Jan-20 05:33 UTC. Time now 2017-Jan-20 05:52 UTC.
Position N 37°57' E 023°38'.

Length 141 m; draft 5.2 m.

Type: Passenger vessel. MMSI: 240389000.

Date/timePositionNaut miles runAvg speedWind from/ knotsBaromVisibWave heightAir tempDewpointWater temp
2017-Jan-20 05:33N 37°57' E 023°38'0 0.0
2017-Jan-20 04:33N 37°57' E 023°38'0 0.0
2017-Jan-20 03:33N 37°57' E 023°38'0 0.0
2017-Jan-20 02:33N 37°57' E 023°38'0 0.0
2017-Jan-20 01:33N 37°57' E 023°38'0 0.0
2017-Jan-20 00:33N 37°57' E 023°38'0 0.0
2017-Jan-19 23:33N 37°57' E 023°38'0 0.0
2017-Jan-19 22:33N 37°57' E 023°38'0 0.0
2017-Jan-19 21:33N 37°57' E 023°38'8 8.1
2017-Jan-19 20:34N 37°49' E 023°41'6920.9
2017-Jan-19 17:16N 37°27' E 025°03'1217.0
2017-Jan-19 16:33N 37°28' E 025°18'165 9.0
2017-Jan-18 22:11N 40°13' E 024°57'1218.6
2017-Jan-18 21:33N 40°23' E 024°50'2221.7
2017-Jan-18 20:34N 40°38' E 024°30'1817.9
2017-Jan-18 19:33N 40°56' E 024°25'0 0.0
2017-Jan-18 18:33N 40°56' E 024°25'0 0.0
2017-Jan-18 17:33N 40°56' E 024°25'8 7.6
2017-Jan-18 16:34N 40°48' E 024°26'2323.4
2017-Jan-18 15:34N 40°27' E 024°39'2119.2
2017-Jan-18 14:29N 40°10' E 024°53'162 8.5
2017-Jan-17 19:27N 37°29' E 025°18'1112.1
2017-Jan-17 18:32N 37°27' E 025°04'1310.3
2017-Jan-17 17:17N 37°32' E 024°49'5721.1
2017-Jan-17 14:34N 37°46' E 023°39'1010.3
2017-Jan-17 13:34N 37°57' E 023°38'0 0.0
2017-Jan-17 12:33N 37°57' E 023°38'0 0.0
2017-Jan-17 11:34N 37°57' E 023°38'0 0.4
2017-Jan-17 10:34N 37°56' E 023°38'7518.8
2017-Jan-17 06:33N 37°27' E 025°05'10 0.9
2017-Jan-16 19:28N 37°28' E 025°18'1011.3
2017-Jan-16 18:33N 37°27' E 025°05'1310.7
2017-Jan-16 17:18N 37°31' E 024°49'5720.9
2017-Jan-16 14:33N 37°46' E 023°39'10 3.1
2017-Jan-16 11:16N 37°57' E 023°38'0 0.1
2017-Jan-16 10:33N 37°57' E 023°38'0 0.0
2017-Jan-16 09:33N 37°57' E 023°38'0 0.0
2017-Jan-16 08:33N 37°57' E 023°38'0 0.0
2017-Jan-16 07:33N 37°57' E 023°38'0 0.0
2017-Jan-16 06:33N 37°57' E 023°38'0 0.0
2017-Jan-16 05:33N 37°57' E 023°38'0 0.0
2017-Jan-16 04:33N 37°57' E 023°38'0 0.0
2017-Jan-16 03:33N 37°57' E 023°38'0 0.0
2017-Jan-16 02:33N 37°57' E 023°38'0 0.0
2017-Jan-16 01:33N 37°57' E 023°38'0 0.0
2017-Jan-16 00:33N 37°57' E 023°38'0 0.0
2017-Jan-15 23:33N 37°57' E 023°38'0 0.0
2017-Jan-15 22:33N 37°57' E 023°38'1 0.5
2017-Jan-15 21:32N 37°57' E 023°38'3 3.3
2017-Jan-15 20:34N 37°53' E 023°38'8220.6
2017-Jan-15 16:34N 37°28' E 025°17'150 8.3
2017-Jan-14 22:30N 39°57' E 024°59'2122.5
2017-Jan-14 21:33N 40°16' E 024°45'2322.6
2017-Jan-14 20:33N 40°35' E 024°31'2121.1
2017-Jan-14 19:33N 40°56' E 024°25'0 0.1
2017-Jan-14 18:33N 40°56' E 024°25'0 0.0
2017-Jan-14 17:33N 40°56' E 024°25'3 3.3
2017-Jan-14 16:33N 40°53' E 024°25'2222.4
2017-Jan-14 15:33N 40°31' E 024°35'2222.3
2017-Jan-14 14:33N 40°12' E 024°49'165 8.6
2017-Jan-13 19:26N 37°29' E 025°18'1112.3
2017-Jan-13 18:33N 37°27' E 025°04'1310.5
2017-Jan-13 17:17N 37°32' E 024°49'4622.1
2017-Jan-13 15:14N 37°37' E 023°52'1522.0
2017-Jan-13 14:34N 37°48' E 023°38'9 9.1
2017-Jan-13 13:33N 37°57' E 023°38'0 0.0
2017-Jan-13 12:33N 37°57' E 023°38'0 0.0
2017-Jan-13 11:33N 37°57' E 023°38'0 0.0
2017-Jan-13 10:33N 37°57' E 023°38'0 0.0
2017-Jan-13 09:33N 37°57' E 023°38'0 0.0
2017-Jan-13 08:33N 37°57' E 023°38'0 0.0
2017-Jan-13 07:33N 37°57' E 023°38'0 0.0
2017-Jan-13 06:33N 37°57' E 023°38'0 0.0
2017-Jan-13 05:33N 37°57' E 023°38'0 0.0
2017-Jan-13 04:33N 37°57' E 023°38'0 0.0
2017-Jan-13 03:33N 37°57' E 023°38'0 0.0
2017-Jan-13 02:33N 37°57' E 023°38'0 0.0
2017-Jan-13 01:33N 37°57' E 023°38'0 0.0
2017-Jan-13 00:33N 37°57' E 023°38'0 0.0
2017-Jan-12 23:33N 37°57' E 023°38'0 0.0
2017-Jan-12 22:33N 37°57' E 023°38'0 0.0
2017-Jan-12 21:33N 37°57' E 023°38'3 3.0
2017-Jan-12 20:34N 37°54' E 023°38'8220.5
2017-Jan-12 16:34N 37°27' E 025°16'65 7.8
2017-Jan-12 08:13N 38°12' E 026°16'1115.7
2017-Jan-12 07:29N 38°22' E 026°08'1313.9
2017-Jan-12 06:34N 38°32' E 026°19'2221.6
2017-Jan-12 05:33N 38°52' E 026°31'1514.8
2017-Jan-12 04:33N 39°06' E 026°34'2 1.5
2017-Jan-12 03:33N 39°08' E 026°35'9617.7
2017-Jan-11 22:08N 40°04' E 024°53'1321.8
2017-Jan-11 21:33N 40°15' E 024°46'2322.1
2017-Jan-11 20:30N 40°35' E 024°31'2122.3
2017-Jan-11 19:33N 40°56' E 024°24'0 0.4
2017-Jan-11 18:33N 40°56' E 024°25'0 0.0
2017-Jan-11 17:33N 40°56' E 024°25'1716.7
2017-Jan-11 16:33N 40°40' E 024°29'2322.6
2017-Jan-11 15:33N 40°19' E 024°42'2322.6
2017-Jan-11 14:33N 39°60' E 024°57'9216.9
2017-Jan-11 09:07N 39°06' E 026°34'0 0.8
2017-Jan-11 08:33N 39°06' E 026°34'0 0.0
2017-Jan-11 07:33N 39°06' E 026°34'1616.0
2017-Jan-11 06:33N 38°51' E 026°29'2222.2
2017-Jan-11 05:33N 38°30' E 026°19'77 7.6
2017-Jan-10 19:28N 37°30' E 025°18'1112.3
2017-Jan-10 18:33N 37°27' E 025°04'1410.3
2017-Jan-10 17:14N 37°31' E 024°48'5721.2
2017-Jan-10 14:33N 37°46' E 023°39'1110.5
2017-Jan-10 13:33N 37°57' E 023°38'0 0.0
2017-Jan-10 12:33N 37°57' E 023°38'0 0.0
2017-Jan-10 11:33N 37°57' E 023°38'7 6.8
2017-Jan-10 10:33N 37°50' E 023°40'7518.6
2017-Jan-10 06:34N 37°28' E 025°10'  

Dump ship's entire track history